sensor_id;sensor_type;location;lat;lon;timestamp;P1;durP1;ratioP1;P2;durP2;ratioP2
52272;SDS011;38227;50.942;4.016;2022-07-06T00:01:52;10.02;;;3.35;;
52272;SDS011;38227;50.942;4.016;2022-07-06T00:04:21;7.90;;;3.17;;
52272;SDS011;38227;50.942;4.016;2022-07-06T00:06:49;11.80;;;3.12;;
52272;SDS011;38227;50.942;4.016;2022-07-06T00:09:21;9.65;;;3.20;;
52272;SDS011;38227;50.942;4.016;2022-07-06T00:11:53;8.00;;;3.30;;
52272;SDS011;38227;50.942;4.016;2022-07-06T00:14:23;7.07;;;3.45;;
52272;SDS011;38227;50.942;4.016;2022-07-06T00:16:55;8.50;;;3.30;;
52272;SDS011;38227;50.942;4.016;2022-07-06T00:19:26;11.15;;;3.60;;
52272;SDS011;38227;50.942;4.016;2022-07-06T00:21:58;10.15;;;3.20;;
52272;SDS011;38227;50.942;4.016;2022-07-06T00:24:36;9.98;;;3.20;;
52272;SDS011;38227;50.942;4.016;2022-07-06T00:27:24;9.18;;;3.87;;
52272;SDS011;38227;50.942;4.016;2022-07-06T00:29:56;8.98;;;3.37;;
52272;SDS011;38227;50.942;4.016;2022-07-06T00:32:37;7.35;;;3.78;;
52272;SDS011;38227;50.942;4.016;2022-07-06T00:35:16;7.37;;;3.70;;
52272;SDS011;38227;50.942;4.016;2022-07-06T00:38:06;8.15;;;3.58;;
52272;SDS011;38227;50.942;4.016;2022-07-06T00:40:41;5.87;;;3.45;;
52272;SDS011;38227;50.942;4.016;2022-07-06T00:46:45;9.85;;;3.70;;
52272;SDS011;38227;50.942;4.016;2022-07-06T00:49:32;10.60;;;3.45;;
52272;SDS011;38227;50.942;4.016;2022-07-06T00:52:18;6.20;;;3.47;;
52272;SDS011;38227;50.942;4.016;2022-07-06T00:54:51;6.80;;;3.65;;
52272;SDS011;38227;50.942;4.016;2022-07-06T00:57:48;9.90;;;3.45;;
52272;SDS011;38227;50.942;4.016;2022-07-06T01:00:20;11.95;;;3.60;;
52272;SDS011;38227;50.942;4.016;2022-07-06T01:02:59;6.57;;;3.12;;
52272;SDS011;38227;50.942;4.016;2022-07-06T01:05:30;6.93;;;3.30;;
52272;SDS011;38227;50.942;4.016;2022-07-06T01:08:02;7.60;;;3.45;;
52272;SDS011;38227;50.942;4.016;2022-07-06T01:10:52;7.78;;;3.20;;
52272;SDS011;38227;50.942;4.016;2022-07-06T01:13:32;5.62;;;3.40;;
52272;SDS011;38227;50.942;4.016;2022-07-06T01:16:21;11.65;;;3.92;;
52272;SDS011;38227;50.942;4.016;2022-07-06T01:18:58;7.15;;;4.10;;
52272;SDS011;38227;50.942;4.016;2022-07-06T01:24:15;7.00;;;3.65;;
52272;SDS011;38227;50.942;4.016;2022-07-06T01:26:55;8.55;;;3.78;;
52272;SDS011;38227;50.942;4.016;2022-07-06T01:29:30;8.68;;;3.62;;
52272;SDS011;38227;50.942;4.016;2022-07-06T01:32:13;7.12;;;3.90;;
52272;SDS011;38227;50.942;4.016;2022-07-06T01:34:59;7.00;;;4.60;;
52272;SDS011;38227;50.942;4.016;2022-07-06T01:37:51;14.13;;;5.28;;
52272;SDS011;38227;50.942;4.016;2022-07-06T01:40:32;11.05;;;5.43;;
52272;SDS011;38227;50.942;4.016;2022-07-06T01:43:25;10.98;;;5.87;;
52272;SDS011;38227;50.942;4.016;2022-07-06T01:45:56;9.73;;;5.80;;
52272;SDS011;38227;50.942;4.016;2022-07-06T01:48:51;14.07;;;6.25;;
52272;SDS011;38227;50.942;4.016;2022-07-06T01:51:39;8.45;;;5.87;;
52272;SDS011;38227;50.942;4.016;2022-07-06T01:54:18;14.70;;;6.12;;
52272;SDS011;38227;50.942;4.016;2022-07-06T01:56:55;10.77;;;6.55;;
52272;SDS011;38227;50.942;4.016;2022-07-06T01:59:29;10.57;;;6.10;;
52272;SDS011;38227;50.942;4.016;2022-07-06T02:02:15;13.13;;;6.30;;
52272;SDS011;38227;50.942;4.016;2022-07-06T02:04:50;11.18;;;6.22;;
52272;SDS011;38227;50.942;4.016;2022-07-06T02:13:03;8.75;;;5.10;;
52272;SDS011;38227;50.942;4.016;2022-07-06T02:15:41;9.68;;;5.90;;
52272;SDS011;38227;50.942;4.016;2022-07-06T02:18:40;9.18;;;5.53;;
52272;SDS011;38227;50.942;4.016;2022-07-06T02:21:29;8.90;;;5.22;;
52272;SDS011;38227;50.942;4.016;2022-07-06T02:24:03;11.73;;;6.15;;
52272;SDS011;38227;50.942;4.016;2022-07-06T02:26:37;10.85;;;5.57;;
52272;SDS011;38227;50.942;4.016;2022-07-06T02:29:19;12.57;;;6.10;;
52272;SDS011;38227;50.942;4.016;2022-07-06T02:32:06;9.52;;;5.25;;
52272;SDS011;38227;50.942;4.016;2022-07-06T02:35:07;11.15;;;5.45;;
52272;SDS011;38227;50.942;4.016;2022-07-06T02:37:53;12.57;;;5.55;;
52272;SDS011;38227;50.942;4.016;2022-07-06T02:40:39;12.48;;;5.72;;
52272;SDS011;38227;50.942;4.016;2022-07-06T02:43:16;9.43;;;5.37;;
52272;SDS011;38227;50.942;4.016;2022-07-06T02:45:56;9.25;;;4.95;;
52272;SDS011;38227;50.942;4.016;2022-07-06T02:48:30;10.02;;;5.40;;
52272;SDS011;38227;50.942;4.016;2022-07-06T02:51:17;10.15;;;5.87;;
52272;SDS011;38227;50.942;4.016;2022-07-06T02:54:07;12.35;;;6.15;;
52272;SDS011;38227;50.942;4.016;2022-07-06T02:56:40;14.25;;;6.43;;
52272;SDS011;38227;50.942;4.016;2022-07-06T02:59:32;12.43;;;6.78;;
52272;SDS011;38227;50.942;4.016;2022-07-06T03:02:06;15.63;;;7.60;;
52272;SDS011;38227;50.942;4.016;2022-07-06T03:04:42;10.88;;;7.12;;
52272;SDS011;38227;50.942;4.016;2022-07-06T03:07:19;12.52;;;7.07;;
52272;SDS011;38227;50.942;4.016;2022-07-06T03:09:58;12.25;;;7.62;;
52272;SDS011;38227;50.942;4.016;2022-07-06T03:12:38;11.70;;;7.68;;
52272;SDS011;38227;50.942;4.016;2022-07-06T03:15:38;12.57;;;6.93;;
52272;SDS011;38227;50.942;4.016;2022-07-06T03:18:14;10.57;;;7.40;;
52272;SDS011;38227;50.942;4.016;2022-07-06T03:20:59;12.55;;;7.35;;
52272;SDS011;38227;50.942;4.016;2022-07-06T03:23:47;13.27;;;6.70;;
52272;SDS011;38227;50.942;4.016;2022-07-06T03:26:27;12.82;;;6.78;;
52272;SDS011;38227;50.942;4.016;2022-07-06T03:29:00;10.82;;;6.40;;
52272;SDS011;38227;50.942;4.016;2022-07-06T03:31:39;13.95;;;6.50;;
52272;SDS011;38227;50.942;4.016;2022-07-06T03:34:12;11.32;;;6.00;;
52272;SDS011;38227;50.942;4.016;2022-07-06T03:36:51;12.30;;;6.15;;
52272;SDS011;38227;50.942;4.016;2022-07-06T03:39:27;8.52;;;5.30;;
52272;SDS011;38227;50.942;4.016;2022-07-06T03:42:19;10.50;;;5.25;;
52272;SDS011;38227;50.942;4.016;2022-07-06T03:45:12;14.90;;;5.55;;
52272;SDS011;38227;50.942;4.016;2022-07-06T03:47:51;12.10;;;5.57;;
52272;SDS011;38227;50.942;4.016;2022-07-06T03:50:26;11.75;;;5.47;;
52272;SDS011;38227;50.942;4.016;2022-07-06T03:53:00;10.00;;;5.30;;
52272;SDS011;38227;50.942;4.016;2022-07-06T03:55:37;11.85;;;5.10;;
52272;SDS011;38227;50.942;4.016;2022-07-06T03:58:31;13.30;;;5.10;;
52272;SDS011;38227;50.942;4.016;2022-07-06T04:01:14;11.10;;;5.30;;
52272;SDS011;38227;50.942;4.016;2022-07-06T04:04:08;10.63;;;5.55;;
52272;SDS011;38227;50.942;4.016;2022-07-06T04:06:58;12.25;;;5.65;;
52272;SDS011;38227;50.942;4.016;2022-07-06T04:09:29;8.75;;;5.62;;
52272;SDS011;38227;50.942;4.016;2022-07-06T04:12:00;10.55;;;5.00;;
52272;SDS011;38227;50.942;4.016;2022-07-06T04:14:34;11.75;;;5.45;;
52272;SDS011;38227;50.942;4.016;2022-07-06T04:17:28;10.23;;;4.97;;
52272;SDS011;38227;50.942;4.016;2022-07-06T04:20:19;12.93;;;5.05;;
52272;SDS011;38227;50.942;4.016;2022-07-06T04:22:55;11.23;;;5.07;;
52272;SDS011;38227;50.942;4.016;2022-07-06T04:25:37;9.02;;;5.07;;
52272;SDS011;38227;50.942;4.016;2022-07-06T04:28:07;12.45;;;6.10;;
52272;SDS011;38227;50.942;4.016;2022-07-06T04:30:37;11.12;;;6.07;;
52272;SDS011;38227;50.942;4.016;2022-07-06T04:33:11;10.63;;;5.72;;
52272;SDS011;38227;50.942;4.016;2022-07-06T04:35:40;14.32;;;6.50;;
52272;SDS011;38227;50.942;4.016;2022-07-06T04:38:15;11.10;;;5.47;;
52272;SDS011;38227;50.942;4.016;2022-07-06T04:40:44;15.27;;;6.25;;
52272;SDS011;38227;50.942;4.016;2022-07-06T04:43:14;10.93;;;6.60;;
52272;SDS011;38227;50.942;4.016;2022-07-06T04:45:48;14.18;;;6.30;;
52272;SDS011;38227;50.942;4.016;2022-07-06T04:48:37;12.40;;;6.37;;
52272;SDS011;38227;50.942;4.016;2022-07-06T04:51:15;9.40;;;5.85;;
52272;SDS011;38227;50.942;4.016;2022-07-06T04:53:46;10.20;;;5.85;;
52272;SDS011;38227;50.942;4.016;2022-07-06T04:56:24;15.10;;;5.65;;
52272;SDS011;38227;50.942;4.016;2022-07-06T04:58:57;10.02;;;6.10;;
52272;SDS011;38227;50.942;4.016;2022-07-06T05:01:37;13.32;;;6.35;;
52272;SDS011;38227;50.942;4.016;2022-07-06T05:04:25;10.20;;;5.15;;
52272;SDS011;38227;50.942;4.016;2022-07-06T05:06:54;8.82;;;5.43;;
52272;SDS011;38227;50.942;4.016;2022-07-06T05:09:44;12.95;;;6.22;;
52272;SDS011;38227;50.942;4.016;2022-07-06T05:12:17;12.35;;;5.60;;
52272;SDS011;38227;50.942;4.016;2022-07-06T05:15:01;10.77;;;4.85;;
52272;SDS011;38227;50.942;4.016;2022-07-06T05:17:34;9.70;;;4.97;;
52272;SDS011;38227;50.942;4.016;2022-07-06T05:20:16;9.57;;;4.53;;
52272;SDS011;38227;50.942;4.016;2022-07-06T05:22:48;8.40;;;4.55;;
52272;SDS011;38227;50.942;4.016;2022-07-06T05:25:29;10.98;;;4.75;;
52272;SDS011;38227;50.942;4.016;2022-07-06T05:28:21;14.40;;;4.47;;
52272;SDS011;38227;50.942;4.016;2022-07-06T05:31:10;11.12;;;4.55;;
52272;SDS011;38227;50.942;4.016;2022-07-06T05:33:49;9.10;;;4.93;;
52272;SDS011;38227;50.942;4.016;2022-07-06T05:36:19;12.13;;;5.05;;
52272;SDS011;38227;50.942;4.016;2022-07-06T05:38:49;12.05;;;5.28;;
52272;SDS011;38227;50.942;4.016;2022-07-06T05:41:18;9.90;;;5.20;;
52272;SDS011;38227;50.942;4.016;2022-07-06T05:43:51;11.27;;;5.37;;
52272;SDS011;38227;50.942;4.016;2022-07-06T05:46:23;10.95;;;5.30;;
52272;SDS011;38227;50.942;4.016;2022-07-06T05:49:15;12.18;;;5.60;;
52272;SDS011;38227;50.942;4.016;2022-07-06T05:53:03;13.82;;;5.25;;
52272;SDS011;38227;50.942;4.016;2022-07-06T05:56:15;13.73;;;5.90;;
